sensor_id;sensor_type;location;lat;lon;timestamp;P1;durP1;ratioP1;P2;durP2;ratioP2
65737;SDS011;52478;51.844;6.582;2023-08-20T01:00:53;10.80;;;3.72;;
65737;SDS011;52478;51.844;6.582;2023-08-20T01:03:20;8.98;;;3.60;;
65737;SDS011;52478;51.844;6.582;2023-08-20T01:05:49;10.38;;;3.78;;
65737;SDS011;52478;51.844;6.582;2023-08-20T01:08:21;8.93;;;3.90;;
65737;SDS011;52478;51.844;6.582;2023-08-20T01:10:56;8.98;;;3.30;;
65737;SDS011;52478;51.844;6.582;2023-08-20T01:13:25;12.25;;;3.90;;
65737;SDS011;52478;51.844;6.582;2023-08-20T01:15:53;8.15;;;3.17;;
65737;SDS011;52478;51.844;6.582;2023-08-20T01:18:20;8.23;;;3.17;;
65737;SDS011;52478;51.844;6.582;2023-08-20T01:20:47;7.22;;;2.78;;
65737;SDS011;52478;51.844;6.582;2023-08-20T01:23:41;6.15;;;3.05;;
65737;SDS011;52478;51.844;6.582;2023-08-20T01:26:22;6.93;;;3.08;;
65737;SDS011;52478;51.844;6.582;2023-08-20T01:28:59;9.20;;;3.05;;
65737;SDS011;52478;51.844;6.582;2023-08-20T01:31:26;10.52;;;2.92;;
65737;SDS011;52478;51.844;6.582;2023-08-20T01:33:53;8.20;;;3.30;;
65737;SDS011;52478;51.844;6.582;2023-08-20T01:36:20;8.75;;;3.47;;
65737;SDS011;52478;51.844;6.582;2023-08-20T01:38:48;7.55;;;3.10;;
65737;SDS011;52478;51.844;6.582;2023-08-20T01:41:14;7.45;;;3.13;;
65737;SDS011;52478;51.844;6.582;2023-08-20T01:43:41;9.35;;;3.20;;
65737;SDS011;52478;51.844;6.582;2023-08-20T01:46:09;7.22;;;3.03;;
65737;SDS011;52478;51.844;6.582;2023-08-20T01:48:37;6.85;;;3.20;;
65737;SDS011;52478;51.844;6.582;2023-08-20T01:51:04;6.85;;;3.00;;
65737;SDS011;52478;51.844;6.582;2023-08-20T01:53:31;7.85;;;3.53;;
65737;SDS011;52478;51.844;6.582;2023-08-20T01:55:57;7.50;;;3.95;;
65737;SDS011;52478;51.844;6.582;2023-08-20T01:58:24;6.82;;;3.60;;
65737;SDS011;52478;51.844;6.582;2023-08-20T02:03:19;7.72;;;3.50;;
65737;SDS011;52478;51.844;6.582;2023-08-20T02:05:46;7.20;;;2.95;;
65737;SDS011;52478;51.844;6.582;2023-08-20T02:08:12;7.30;;;3.35;;
65737;SDS011;52478;51.844;6.582;2023-08-20T02:10:38;6.85;;;3.00;;
65737;SDS011;52478;51.844;6.582;2023-08-20T02:13:05;9.45;;;3.22;;
65737;SDS011;52478;51.844;6.582;2023-08-20T02:15:32;7.68;;;3.47;;
65737;SDS011;52478;51.844;6.582;2023-08-20T02:17:58;7.15;;;3.80;;
65737;SDS011;52478;51.844;6.582;2023-08-20T02:20:27;9.05;;;2.90;;
65737;SDS011;52478;51.844;6.582;2023-08-20T02:22:54;7.25;;;3.20;;
65737;SDS011;52478;51.844;6.582;2023-08-20T02:25:20;6.90;;;3.25;;
65737;SDS011;52478;51.844;6.582;2023-08-20T02:27:47;7.72;;;3.33;;
65737;SDS011;52478;51.844;6.582;2023-08-20T02:30:13;10.85;;;3.80;;
65737;SDS011;52478;51.844;6.582;2023-08-20T02:32:40;6.88;;;3.28;;
65737;SDS011;52478;51.844;6.582;2023-08-20T02:35:07;7.30;;;3.03;;
65737;SDS011;52478;51.844;6.582;2023-08-20T02:37:35;10.13;;;3.47;;
65737;SDS011;52478;51.844;6.582;2023-08-20T02:40:03;9.57;;;3.60;;
65737;SDS011;52478;51.844;6.582;2023-08-20T02:42:31;8.43;;;3.97;;
65737;SDS011;52478;51.844;6.582;2023-08-20T02:44:57;9.07;;;4.00;;
65737;SDS011;52478;51.844;6.582;2023-08-20T02:47:24;7.78;;;3.83;;
65737;SDS011;52478;51.844;6.582;2023-08-20T02:49:50;9.88;;;4.00;;
65737;SDS011;52478;51.844;6.582;2023-08-20T02:52:17;8.50;;;3.50;;
65737;SDS011;52478;51.844;6.582;2023-08-20T02:54:45;7.65;;;3.92;;
65737;SDS011;52478;51.844;6.582;2023-08-20T02:57:11;9.23;;;3.97;;
65737;SDS011;52478;51.844;6.582;2023-08-20T02:59:38;7.68;;;3.83;;
65737;SDS011;52478;51.844;6.582;2023-08-20T03:02:04;7.63;;;3.53;;
65737;SDS011;52478;51.844;6.582;2023-08-20T03:04:31;9.00;;;3.90;;
65737;SDS011;52478;51.844;6.582;2023-08-20T03:06:57;9.95;;;4.05;;
65737;SDS011;52478;51.844;6.582;2023-08-20T03:09:23;6.82;;;3.67;;
65737;SDS011;52478;51.844;6.582;2023-08-20T03:11:51;7.50;;;4.03;;
65737;SDS011;52478;51.844;6.582;2023-08-20T03:14:18;9.15;;;3.88;;
65737;SDS011;52478;51.844;6.582;2023-08-20T03:16:44;7.63;;;3.63;;
65737;SDS011;52478;51.844;6.582;2023-08-20T03:19:11;8.60;;;4.00;;
65737;SDS011;52478;51.844;6.582;2023-08-20T03:21:37;9.65;;;4.18;;
65737;SDS011;52478;51.844;6.582;2023-08-20T03:24:04;8.35;;;4.20;;
65737;SDS011;52478;51.844;6.582;2023-08-20T03:26:32;7.50;;;4.10;;
65737;SDS011;52478;51.844;6.582;2023-08-20T03:29:00;10.25;;;4.50;;
65737;SDS011;52478;51.844;6.582;2023-08-20T03:31:26;7.38;;;3.90;;
65737;SDS011;52478;51.844;6.582;2023-08-20T03:33:53;9.00;;;4.13;;
65737;SDS011;52478;51.844;6.582;2023-08-20T03:36:19;9.50;;;4.57;;
65737;SDS011;52478;51.844;6.582;2023-08-20T03:38:46;10.57;;;4.07;;
65737;SDS011;52478;51.844;6.582;2023-08-20T03:41:12;8.82;;;4.40;;
65737;SDS011;52478;51.844;6.582;2023-08-20T03:43:38;8.65;;;4.30;;
65737;SDS011;52478;51.844;6.582;2023-08-20T03:46:06;9.25;;;4.03;;
65737;SDS011;52478;51.844;6.582;2023-08-20T03:48:33;7.53;;;3.65;;
65737;SDS011;52478;51.844;6.582;2023-08-20T03:50:59;8.30;;;4.45;;
65737;SDS011;52478;51.844;6.582;2023-08-20T03:53:26;9.48;;;4.45;;
65737;SDS011;52478;51.844;6.582;2023-08-20T03:55:52;8.25;;;4.40;;
65737;SDS011;52478;51.844;6.582;2023-08-20T03:58:19;8.88;;;4.43;;
65737;SDS011;52478;51.844;6.582;2023-08-20T04:00:45;9.45;;;4.55;;
65737;SDS011;52478;51.844;6.582;2023-08-20T04:03:13;10.07;;;4.93;;
65737;SDS011;52478;51.844;6.582;2023-08-20T04:05:39;11.55;;;4.82;;
65737;SDS011;52478;51.844;6.582;2023-08-20T04:08:06;9.13;;;4.57;;
65737;SDS011;52478;51.844;6.582;2023-08-20T04:10:33;9.85;;;5.18;;
65737;SDS011;52478;51.844;6.582;2023-08-20T04:12:59;11.23;;;4.63;;
65737;SDS011;52478;51.844;6.582;2023-08-20T04:15:26;8.77;;;5.13;;
65737;SDS011;52478;51.844;6.582;2023-08-20T04:17:52;10.35;;;5.30;;
65737;SDS011;52478;51.844;6.582;2023-08-20T04:20:20;13.25;;;5.15;;
65737;SDS011;52478;51.844;6.582;2023-08-20T04:22:48;10.25;;;4.78;;
65737;SDS011;52478;51.844;6.582;2023-08-20T04:25:14;9.05;;;4.88;;
65737;SDS011;52478;51.844;6.582;2023-08-20T04:27:41;13.75;;;4.72;;
65737;SDS011;52478;51.844;6.582;2023-08-20T04:30:07;8.65;;;4.55;;
65737;SDS011;52478;51.844;6.582;2023-08-20T04:32:35;10.80;;;5.38;;
65737;SDS011;52478;51.844;6.582;2023-08-20T04:35:01;9.82;;;5.40;;
65737;SDS011;52478;51.844;6.582;2023-08-20T04:37:29;9.00;;;4.60;;
65737;SDS011;52478;51.844;6.582;2023-08-20T04:39:56;8.35;;;4.47;;
65737;SDS011;52478;51.844;6.582;2023-08-20T04:42:22;8.60;;;4.63;;
65737;SDS011;52478;51.844;6.582;2023-08-20T04:44:49;8.77;;;4.70;;
65737;SDS011;52478;51.844;6.582;2023-08-20T04:47:15;10.90;;;4.60;;
65737;SDS011;52478;51.844;6.582;2023-08-20T04:49:42;9.43;;;4.55;;
65737;SDS011;52478;51.844;6.582;2023-08-20T04:52:08;8.32;;;4.47;;
65737;SDS011;52478;51.844;6.582;2023-08-20T04:54:36;8.77;;;3.90;;
65737;SDS011;52478;51.844;6.582;2023-08-20T04:57:03;7.88;;;4.43;;
65737;SDS011;52478;51.844;6.582;2023-08-20T04:59:29;9.63;;;5.35;;
65737;SDS011;52478;51.844;6.582;2023-08-20T05:01:56;7.53;;;3.85;;
65737;SDS011;52478;51.844;6.582;2023-08-20T05:04:22;8.82;;;4.72;;
65737;SDS011;52478;51.844;6.582;2023-08-20T05:06:49;8.82;;;4.57;;
65737;SDS011;52478;51.844;6.582;2023-08-20T05:09:16;9.57;;;4.85;;
65737;SDS011;52478;51.844;6.582;2023-08-20T05:11:43;9.10;;;4.90;;
65737;SDS011;52478;51.844;6.582;2023-08-20T05:14:10;9.20;;;4.97;;
65737;SDS011;52478;51.844;6.582;2023-08-20T05:16:36;8.20;;;4.55;;
65737;SDS011;52478;51.844;6.582;2023-08-20T05:19:03;9.80;;;5.65;;
65737;SDS011;52478;51.844;6.582;2023-08-20T05:21:29;9.48;;;4.78;;
65737;SDS011;52478;51.844;6.582;2023-08-20T05:23:56;8.10;;;4.68;;
65737;SDS011;52478;51.844;6.582;2023-08-20T05:26:22;11.25;;;4.90;;
65737;SDS011;52478;51.844;6.582;2023-08-20T05:28:50;9.13;;;4.50;;
65737;SDS011;52478;51.844;6.582;2023-08-20T05:31:17;9.48;;;4.30;;
65737;SDS011;52478;51.844;6.582;2023-08-20T05:33:43;9.35;;;4.57;;
65737;SDS011;52478;51.844;6.582;2023-08-20T05:36:09;9.45;;;4.68;;
65737;SDS011;52478;51.844;6.582;2023-08-20T05:38:36;9.98;;;4.63;;
65737;SDS011;52478;51.844;6.582;2023-08-20T05:41:02;9.40;;;4.68;;
65737;SDS011;52478;51.844;6.582;2023-08-20T05:43:29;9.15;;;4.30;;
65737;SDS011;52478;51.844;6.582;2023-08-20T05:45:57;9.38;;;5.00;;
65737;SDS011;52478;51.844;6.582;2023-08-20T05:48:23;9.63;;;4.25;;
65737;SDS011;52478;51.844;6.582;2023-08-20T05:50:50;7.68;;;3.70;;
65737;SDS011;52478;51.844;6.582;2023-08-20T05:53:16;7.20;;;3.55;;
65737;SDS011;52478;51.844;6.582;2023-08-20T05:55:43;9.93;;;3.80;;
65737;SDS011;52478;51.844;6.582;2023-08-20T05:58:09;9.85;;;4.30;;
65737;SDS011;52478;51.844;6.582;2023-08-20T06:00:36;9.27;;;4.68;;
65737;SDS011;52478;51.844;6.582;2023-08-20T06:03:04;10.05;;;5.13;;
65737;SDS011;52478;51.844;6.582;2023-08-20T06:05:32;11.25;;;5.10;;
65737;SDS011;52478;51.844;6.582;2023-08-20T06:07:58;9.15;;;4.57;;
65737;SDS011;52478;51.844;6.582;2023-08-20T06:10:25;11.10;;;5.03;;
65737;SDS011;52478;51.844;6.582;2023-08-20T06:15:19;9.65;;;4.95;;
65737;SDS011;52478;51.844;6.582;2023-08-20T06:17:45;13.45;;;5.40;;
65737;SDS011;52478;51.844;6.582;2023-08-20T06:20:13;11.30;;;5.28;;
65737;SDS011;52478;51.844;6.582;2023-08-20T06:22:39;11.00;;;5.32;;
65737;SDS011;52478;51.844;6.582;2023-08-20T06:25:06;10.43;;;4.93;;
65737;SDS011;52478;51.844;6.582;2023-08-20T06:27:33;11.52;;;5.65;;
65737;SDS011;52478;51.844;6.582;2023-08-20T06:30:00;11.55;;;5.35;;
65737;SDS011;52478;51.844;6.582;2023-08-20T06:32:26;12.98;;;5.32;;
65737;SDS011;52478;51.844;6.582;2023-08-20T06:34:53;11.77;;;5.22;;
65737;SDS011;52478;51.844;6.582;2023-08-20T06:37:20;13.30;;;4.43;;
65737;SDS011;52478;51.844;6.582;2023-08-20T06:39:47;10.27;;;4.35;;
65737;SDS011;52478;51.844;6.582;2023-08-20T06:42:13;10.77;;;3.75;;
65737;SDS011;52478;51.844;6.582;2023-08-20T06:44:40;8.15;;;3.72;;
65737;SDS011;52478;51.844;6.582;2023-08-20T06:47:06;11.85;;;3.78;;
65737;SDS011;52478;51.844;6.582;2023-08-20T06:49:33;8.70;;;3.20;;
65737;SDS011;52478;51.844;6.582;2023-08-20T06:51:59;9.15;;;3.70;;
65737;SDS011;52478;51.844;6.582;2023-08-20T06:54:27;9.65;;;3.40;;
65737;SDS011;52478;51.844;6.582;2023-08-20T06:56:54;8.07;;;3.90;;
65737;SDS011;52478;51.844;6.582;2023-08-20T06:59:20;8.77;;;3.78;;
65737;SDS011;52478;51.844;6.582;2023-08-20T07:01:48;7.35;;;3.28;;
65737;SDS011;52478;51.844;6.582;2023-08-20T07:04:14;8.52;;;3.50;;
65737;SDS011;52478;51.844;6.582;2023-08-20T07:06:41;7.05;;;3.30;;
65737;SDS011;52478;51.844;6.582;2023-08-20T07:09:07;9.10;;;3.50;;
65737;SDS011;52478;51.844;6.582;2023-08-20T07:11:36;9.23;;;3.20;;
65737;SDS011;52478;51.844;6.582;2023-08-20T07:14:02;10.30;;;3.38;;
65737;SDS011;52478;51.844;6.582;2023-08-20T07:16:29;8.57;;;3.42;;
65737;SDS011;52478;51.844;6.582;2023-08-20T07:18:56;7.22;;;3.35;;
65737;SDS011;52478;51.844;6.582;2023-08-20T07:21:22;7.93;;;3.38;;
65737;SDS011;52478;51.844;6.582;2023-08-20T07:23:49;7.13;;;3.10;;
65737;SDS011;52478;51.844;6.582;2023-08-20T07:26:15;6.45;;;3.13;;
65737;SDS011;52478;51.844;6.582;2023-08-20T07:28:43;9.02;;;3.22;;
65737;SDS011;52478;51.844;6.582;2023-08-20T07:31:25;7.68;;;3.08;;
65737;SDS011;52478;51.844;6.582;2023-08-20T07:33:53;7.50;;;3.42;;
65737;SDS011;52478;51.844;6.582;2023-08-20T07:36:20;8.63;;;3.60;;
65737;SDS011;52478;51.844;6.582;2023-08-20T07:38:48;7.63;;;3.78;;
65737;SDS011;52478;51.844;6.582;2023-08-20T07:41:14;8.55;;;3.95;;
65737;SDS011;52478;51.844;6.582;2023-08-20T07:43:41;7.25;;;3.53;;
65737;SDS011;52478;51.844;6.582;2023-08-20T07:46:09;8.45;;;3.58;;
65737;SDS011;52478;51.844;6.582;2023-08-20T07:48:35;6.82;;;3.15;;
65737;SDS011;52478;51.844;6.582;2023-08-20T07:51:02;6.75;;;3.25;;
65737;SDS011;52478;51.844;6.582;2023-08-20T07:53:29;9.27;;;3.75;;
65737;SDS011;52478;51.844;6.582;2023-08-20T07:55:56;7.20;;;3.70;;
65737;SDS011;52478;51.844;6.582;2023-08-20T07:58:22;7.28;;;3.38;;
65737;SDS011;52478;51.844;6.582;2023-08-20T08:00:49;8.35;;;3.50;;
65737;SDS011;52478;51.844;6.582;2023-08-20T08:03:17;8.93;;;3.47;;
65737;SDS011;52478;51.844;6.582;2023-08-20T08:05:45;7.60;;;3.58;;
65737;SDS011;52478;51.844;6.582;2023-08-20T08:08:12;7.18;;;3.88;;
65737;SDS011;52478;51.844;6.582;2023-08-20T08:10:38;7.80;;;3.63;;
65737;SDS011;52478;51.844;6.582;2023-08-20T08:13:05;7.95;;;3.60;;
65737;SDS011;52478;51.844;6.582;2023-08-20T08:15:31;8.38;;;3.90;;
65737;SDS011;52478;51.844;6.582;2023-08-20T08:17:58;7.05;;;3.33;;
65737;SDS011;52478;51.844;6.582;2023-08-20T08:20:26;9.38;;;4.25;;
65737;SDS011;52478;51.844;6.582;2023-08-20T08:22:52;9.60;;;4.03;;
65737;SDS011;52478;51.844;6.582;2023-08-20T08:25:19;7.90;;;3.85;;
65737;SDS011;52478;51.844;6.582;2023-08-20T08:27:45;8.02;;;4.07;;
65737;SDS011;52478;51.844;6.582;2023-08-20T08:30:12;9.30;;;4.90;;
65737;SDS011;52478;51.844;6.582;2023-08-20T08:32:39;7.53;;;3.85;;
65737;SDS011;52478;51.844;6.582;2023-08-20T08:35:06;8.27;;;4.43;;
65737;SDS011;52478;51.844;6.582;2023-08-20T08:37:34;9.57;;;4.38;;
65737;SDS011;52478;51.844;6.582;2023-08-20T08:40:01;8.00;;;4.03;;
65737;SDS011;52478;51.844;6.582;2023-08-20T08:42:30;7.55;;;3.60;;
65737;SDS011;52478;51.844;6.582;2023-08-20T08:44:58;7.53;;;3.83;;
65737;SDS011;52478;51.844;6.582;2023-08-20T08:47:25;8.10;;;4.32;;
65737;SDS011;52478;51.844;6.582;2023-08-20T08:49:53;7.22;;;3.72;;
65737;SDS011;52478;51.844;6.582;2023-08-20T08:52:21;7.57;;;4.20;;
65737;SDS011;52478;51.844;6.582;2023-08-20T08:54:50;8.23;;;3.95;;
65737;SDS011;52478;51.844;6.582;2023-08-20T08:57:17;8.77;;;4.60;;
65737;SDS011;52478;51.844;6.582;2023-08-20T08:59:43;8.82;;;4.50;;
65737;SDS011;52478;51.844;6.582;2023-08-20T09:02:11;9.98;;;5.00;;
65737;SDS011;52478;51.844;6.582;2023-08-20T09:04:38;8.90;;;4.97;;
65737;SDS011;52478;51.844;6.582;2023-08-20T09:07:05;9.57;;;5.00;;
65737;SDS011;52478;51.844;6.582;2023-08-20T09:09:36;9.75;;;4.32;;
65737;SDS011;52478;51.844;6.582;2023-08-20T09:12:06;7.53;;;4.18;;
65737;SDS011;52478;51.844;6.582;2023-08-20T09:14:39;7.43;;;4.28;;
65737;SDS011;52478;51.844;6.582;2023-08-20T09:17:05;8.98;;;4.43;;
65737;SDS011;52478;51.844;6.582;2023-08-20T09:19:34;8.60;;;4.28;;
65737;SDS011;52478;51.844;6.582;2023-08-20T09:22:03;8.23;;;4.50;;
65737;SDS011;52478;51.844;6.582;2023-08-20T09:24:32;8.43;;;4.97;;
65737;SDS011;52478;51.844;6.582;2023-08-20T09:27:01;7.85;;;4.50;;
65737;SDS011;52478;51.844;6.582;2023-08-20T09:29:32;7.70;;;3.92;;
65737;SDS011;52478;51.844;6.582;2023-08-20T09:32:00;8.85;;;4.43;;
65737;SDS011;52478;51.844;6.582;2023-08-20T09:34:35;8.15;;;3.90;;
65737;SDS011;52478;51.844;6.582;2023-08-20T09:37:02;8.20;;;4.38;;
65737;SDS011;52478;51.844;6.582;2023-08-20T09:39:29;9.63;;;4.53;;
65737;SDS011;52478;51.844;6.582;2023-08-20T09:41:55;8.25;;;4.50;;
65737;SDS011;52478;51.844;6.582;2023-08-20T09:44:24;8.75;;;4.75;;
65737;SDS011;52478;51.844;6.582;2023-08-20T09:46:55;9.55;;;4.75;;
65737;SDS011;52478;51.844;6.582;2023-08-20T09:49:21;7.50;;;4.47;;
65737;SDS011;52478;51.844;6.582;2023-08-20T09:51:52;9.48;;;5.18;;
65737;SDS011;52478;51.844;6.582;2023-08-20T09:54:21;9.70;;;5.68;;
65737;SDS011;52478;51.844;6.582;2023-08-20T09:56:54;7.72;;;4.82;;
65737;SDS011;52478;51.844;6.582;2023-08-20T09:59:26;9.57;;;5.07;;
65737;SDS011;52478;51.844;6.582;2023-08-20T10:01:54;7.93;;;4.72;;
65737;SDS011;52478;51.844;6.582;2023-08-20T10:04:22;9.18;;;5.05;;
65737;SDS011;52478;51.844;6.582;2023-08-20T10:06:49;8.93;;;4.88;;
65737;SDS011;52478;51.844;6.582;2023-08-20T10:09:18;8.63;;;4.75;;
65737;SDS011;52478;51.844;6.582;2023-08-20T10:11:44;7.60;;;4.18;;
65737;SDS011;52478;51.844;6.582;2023-08-20T10:14:11;10.80;;;5.00;;
65737;SDS011;52478;51.844;6.582;2023-08-20T10:16:37;8.05;;;4.55;;
65737;SDS011;52478;51.844;6.582;2023-08-20T10:19:06;8.07;;;4.68;;
65737;SDS011;52478;51.844;6.582;2023-08-20T10:21:33;9.20;;;4.85;;
65737;SDS011;52478;51.844;6.582;2023-08-20T10:24:02;8.30;;;4.53;;
65737;SDS011;52478;51.844;6.582;2023-08-20T10:26:29;8.90;;;4.65;;
65737;SDS011;52478;51.844;6.582;2023-08-20T10:31:56;8.50;;;4.20;;
65737;SDS011;52478;51.844;6.582;2023-08-20T10:34:32;7.82;;;4.57;;
65737;SDS011;52478;51.844;6.582;2023-08-20T10:37:01;8.38;;;4.53;;
65737;SDS011;52478;51.844;6.582;2023-08-20T10:39:28;8.60;;;4.45;;
65737;SDS011;52478;51.844;6.582;2023-08-20T10:42:07;8.68;;;4.43;;
65737;SDS011;52478;51.844;6.582;2023-08-20T10:47:25;8.43;;;4.40;;
65737;SDS011;52478;51.844;6.582;2023-08-20T10:49:54;8.55;;;4.60;;
65737;SDS011;52478;51.844;6.582;2023-08-20T10:52:22;7.43;;;4.15;;
65737;SDS011;52478;51.844;6.582;2023-08-20T10:54:49;8.63;;;4.28;;
65737;SDS011;52478;51.844;6.582;2023-08-20T10:57:16;8.35;;;4.10;;
65737;SDS011;52478;51.844;6.582;2023-08-20T10:59:47;8.50;;;3.92;;
65737;SDS011;52478;51.844;6.582;2023-08-20T11:02:22;9.55;;;4.07;;
65737;SDS011;52478;51.844;6.582;2023-08-20T11:04:49;7.68;;;3.90;;
65737;SDS011;52478;51.844;6.582;2023-08-20T11:07:20;7.38;;;3.75;;
65737;SDS011;52478;51.844;6.582;2023-08-20T11:09:48;8.27;;;3.80;;
65737;SDS011;52478;51.844;6.582;2023-08-20T11:12:19;8.65;;;4.03;;
65737;SDS011;52478;51.844;6.582;2023-08-20T11:14:46;7.10;;;3.97;;
65737;SDS011;52478;51.844;6.582;2023-08-20T11:17:13;7.68;;;3.65;;
65737;SDS011;52478;51.844;6.582;2023-08-20T11:19:39;8.18;;;4.00;;
65737;SDS011;52478;51.844;6.582;2023-08-20T11:22:06;7.65;;;3.78;;
65737;SDS011;52478;51.844;6.582;2023-08-20T11:24:33;7.70;;;3.47;;
65737;SDS011;52478;51.844;6.582;2023-08-20T11:27:04;7.80;;;4.00;;
65737;SDS011;52478;51.844;6.582;2023-08-20T11:29:30;7.65;;;3.70;;
65737;SDS011;52478;51.844;6.582;2023-08-20T11:31:57;7.72;;;3.60;;
65737;SDS011;52478;51.844;6.582;2023-08-20T11:34:27;7.03;;;3.40;;
65737;SDS011;52478;51.844;6.582;2023-08-20T11:36:54;7.25;;;3.20;;
65737;SDS011;52478;51.844;6.582;2023-08-20T11:39:21;6.53;;;3.33;;
65737;SDS011;52478;51.844;6.582;2023-08-20T11:41:50;6.55;;;3.03;;
65737;SDS011;52478;51.844;6.582;2023-08-20T11:44:20;7.28;;;3.70;;
65737;SDS011;52478;51.844;6.582;2023-08-20T11:46:47;7.65;;;3.45;;
65737;SDS011;52478;51.844;6.582;2023-08-20T11:49:15;5.95;;;3.03;;
65737;SDS011;52478;51.844;6.582;2023-08-20T11:51:42;6.70;;;3.42;;
65737;SDS011;52478;51.844;6.582;2023-08-20T11:54:13;6.75;;;3.70;;
65737;SDS011;52478;51.844;6.582;2023-08-20T11:56:43;8.13;;;3.40;;
65737;SDS011;52478;51.844;6.582;2023-08-20T11:59:11;7.15;;;3.50;;
65737;SDS011;52478;51.844;6.582;2023-08-20T12:01:39;7.53;;;3.40;;
65737;SDS011;52478;51.844;6.582;2023-08-20T12:04:05;7.80;;;3.38;;
65737;SDS011;52478;51.844;6.582;2023-08-20T12:06:33;6.43;;;3.00;;
65737;SDS011;52478;51.844;6.582;2023-08-20T12:09:01;6.38;;;2.97;;
65737;SDS011;52478;51.844;6.582;2023-08-20T12:11:29;6.72;;;2.97;;
65737;SDS011;52478;51.844;6.582;2023-08-20T12:13:58;7.55;;;3.00;;
65737;SDS011;52478;51.844;6.582;2023-08-20T12:16:26;7.55;;;3.28;;
65737;SDS011;52478;51.844;6.582;2023-08-20T12:18:52;6.38;;;2.90;;
65737;SDS011;52478;51.844;6.582;2023-08-20T12:21:19;7.45;;;2.63;;
65737;SDS011;52478;51.844;6.582;2023-08-20T12:23:45;7.10;;;2.80;;
65737;SDS011;52478;51.844;6.582;2023-08-20T12:26:12;7.05;;;2.83;;
65737;SDS011;52478;51.844;6.582;2023-08-20T12:28:38;7.38;;;3.10;;
65737;SDS011;52478;51.844;6.582;2023-08-20T12:31:06;6.32;;;2.88;;
65737;SDS011;52478;51.844;6.582;2023-08-20T12:33:34;7.07;;;3.17;;
65737;SDS011;52478;51.844;6.582;2023-08-20T12:36:01;7.00;;;2.65;;
65737;SDS011;52478;51.844;6.582;2023-08-20T12:38:27;6.75;;;2.80;;
65737;SDS011;52478;51.844;6.582;2023-08-20T12:40:58;6.72;;;2.63;;
65737;SDS011;52478;51.844;6.582;2023-08-20T12:43:25;7.65;;;2.40;;
65737;SDS011;52478;51.844;6.582;2023-08-20T12:45:51;6.78;;;3.13;;
65737;SDS011;52478;51.844;6.582;2023-08-20T12:48:18;6.35;;;2.60;;
65737;SDS011;52478;51.844;6.582;2023-08-20T12:50:46;7.07;;;2.90;;
65737;SDS011;52478;51.844;6.582;2023-08-20T12:53:12;5.90;;;2.58;;
65737;SDS011;52478;51.844;6.582;2023-08-20T12:55:39;6.68;;;2.40;;
65737;SDS011;52478;51.844;6.582;2023-08-20T12:58:05;6.85;;;2.63;;
65737;SDS011;52478;51.844;6.582;2023-08-20T13:00:32;6.43;;;2.55;;
65737;SDS011;52478;51.844;6.582;2023-08-20T13:02:59;5.15;;;2.20;;
65737;SDS011;52478;51.844;6.582;2023-08-20T13:05:26;6.18;;;2.45;;
65737;SDS011;52478;51.844;6.582;2023-08-20T13:07:54;7.00;;;2.70;;
65737;SDS011;52478;51.844;6.582;2023-08-20T13:10:22;6.57;;;3.10;;
65737;SDS011;52478;51.844;6.582;2023-08-20T13:12:49;6.05;;;2.55;;
65737;SDS011;52478;51.844;6.582;2023-08-20T13:15:19;6.85;;;2.60;;
65737;SDS011;52478;51.844;6.582;2023-08-20T13:17:47;7.35;;;2.70;;
65737;SDS011;52478;51.844;6.582;2023-08-20T13:20:15;6.55;;;2.47;;
65737;SDS011;52478;51.844;6.582;2023-08-20T13:22:46;6.68;;;2.83;;
65737;SDS011;52478;51.844;6.582;2023-08-20T13:25:14;7.45;;;2.60;;
65737;SDS011;52478;51.844;6.582;2023-08-20T13:27:41;6.93;;;2.80;;
65737;SDS011;52478;51.844;6.582;2023-08-20T13:30:07;8.30;;;2.75;;
65737;SDS011;52478;51.844;6.582;2023-08-20T13:32:35;9.40;;;3.15;;
65737;SDS011;52478;51.844;6.582;2023-08-20T13:35:01;7.13;;;2.60;;
65737;SDS011;52478;51.844;6.582;2023-08-20T13:37:29;6.70;;;2.60;;
65737;SDS011;52478;51.844;6.582;2023-08-20T13:39:56;6.85;;;2.95;;
65737;SDS011;52478;51.844;6.582;2023-08-20T13:42:24;8.15;;;2.90;;
65737;SDS011;52478;51.844;6.582;2023-08-20T13:44:50;5.65;;;2.47;;
65737;SDS011;52478;51.844;6.582;2023-08-20T13:47:17;7.03;;;2.75;;
65737;SDS011;52478;51.844;6.582;2023-08-20T13:49:44;5.68;;;2.53;;
65737;SDS011;52478;51.844;6.582;2023-08-20T13:52:10;7.20;;;2.60;;
65737;SDS011;52478;51.844;6.582;2023-08-20T13:54:37;6.82;;;2.60;;
65737;SDS011;52478;51.844;6.582;2023-08-20T13:57:03;5.85;;;2.40;;
65737;SDS011;52478;51.844;6.582;2023-08-20T13:59:31;5.40;;;2.30;;
65737;SDS011;52478;51.844;6.582;2023-08-20T14:01:58;6.60;;;2.65;;
65737;SDS011;52478;51.844;6.582;2023-08-20T14:04:25;5.72;;;2.42;;
65737;SDS011;52478;51.844;6.582;2023-08-20T14:06:51;5.80;;;2.40;;
65737;SDS011;52478;51.844;6.582;2023-08-20T14:09:18;5.88;;;2.22;;
65737;SDS011;52478;51.844;6.582;2023-08-20T14:11:44;5.85;;;2.20;;
65737;SDS011;52478;51.844;6.582;2023-08-20T14:14:11;5.88;;;2.20;;
65737;SDS011;52478;51.844;6.582;2023-08-20T14:16:39;6.78;;;2.50;;
65737;SDS011;52478;51.844;6.582;2023-08-20T14:19:06;6.63;;;2.80;;
65737;SDS011;52478;51.844;6.582;2023-08-20T14:21:32;6.07;;;2.30;;
65737;SDS011;52478;51.844;6.582;2023-08-20T14:23:59;6.38;;;2.63;;
65737;SDS011;52478;51.844;6.582;2023-08-20T14:26:25;5.57;;;2.20;;
65737;SDS011;52478;51.844;6.582;2023-08-20T14:28:52;4.97;;;2.15;;
65737;SDS011;52478;51.844;6.582;2023-08-20T14:31:18;7.10;;;2.40;;
65737;SDS011;52478;51.844;6.582;2023-08-20T14:33:46;7.13;;;2.15;;
65737;SDS011;52478;51.844;6.582;2023-08-20T14:36:12;6.70;;;2.38;;
65737;SDS011;52478;51.844;6.582;2023-08-20T14:38:39;5.38;;;2.00;;
65737;SDS011;52478;51.844;6.582;2023-08-20T14:41:05;5.80;;;2.15;;
65737;SDS011;52478;51.844;6.582;2023-08-20T14:43:32;6.07;;;2.38;;
65737;SDS011;52478;51.844;6.582;2023-08-20T14:45:58;6.72;;;2.15;;
65737;SDS011;52478;51.844;6.582;2023-08-20T14:48:26;5.60;;;2.08;;
65737;SDS011;52478;51.844;6.582;2023-08-20T14:50:54;5.15;;;2.20;;
65737;SDS011;52478;51.844;6.582;2023-08-20T14:53:20;5.30;;;2.58;;
65737;SDS011;52478;51.844;6.582;2023-08-20T14:55:47;6.45;;;2.20;;
65737;SDS011;52478;51.844;6.582;2023-08-20T14:58:13;4.93;;;2.20;;
65737;SDS011;52478;51.844;6.582;2023-08-20T15:00:40;5.85;;;2.22;;
65737;SDS011;52478;51.844;6.582;2023-08-20T15:03:06;5.60;;;2.20;;
65737;SDS011;52478;51.844;6.582;2023-08-20T15:08:01;5.07;;;1.80;;
65737;SDS011;52478;51.844;6.582;2023-08-20T15:10:28;5.85;;;2.47;;
65737;SDS011;52478;51.844;6.582;2023-08-20T15:12:54;5.53;;;2.10;;
65737;SDS011;52478;51.844;6.582;2023-08-20T15:15:20;6.25;;;2.25;;
65737;SDS011;52478;51.844;6.582;2023-08-20T15:17:47;5.35;;;2.00;;
65737;SDS011;52478;51.844;6.582;2023-08-20T15:20:15;5.55;;;2.20;;
65737;SDS011;52478;51.844;6.582;2023-08-20T15:22:41;5.00;;;2.03;;
65737;SDS011;52478;51.844;6.582;2023-08-20T15:25:09;5.75;;;1.85;;
65737;SDS011;52478;51.844;6.582;2023-08-20T15:27:36;5.82;;;2.40;;
65737;SDS011;52478;51.844;6.582;2023-08-20T15:32:30;5.53;;;2.10;;
65737;SDS011;52478;51.844;6.582;2023-08-20T15:34:57;5.43;;;2.08;;
65737;SDS011;52478;51.844;6.582;2023-08-20T15:37:23;4.80;;;2.08;;
65737;SDS011;52478;51.844;6.582;2023-08-20T15:39:51;6.35;;;1.92;;
65737;SDS011;52478;51.844;6.582;2023-08-20T15:42:18;6.15;;;1.90;;
65737;SDS011;52478;51.844;6.582;2023-08-20T15:44:45;5.88;;;2.00;;
65737;SDS011;52478;51.844;6.582;2023-08-20T15:47:13;5.80;;;2.30;;
65737;SDS011;52478;51.844;6.582;2023-08-20T15:49:40;5.72;;;1.92;;
65737;SDS011;52478;51.844;6.582;2023-08-20T15:52:06;5.85;;;2.28;;
65737;SDS011;52478;51.844;6.582;2023-08-20T15:54:32;6.28;;;2.10;;
65737;SDS011;52478;51.844;6.582;2023-08-20T15:56:59;5.53;;;1.70;;
65737;SDS011;52478;51.844;6.582;2023-08-20T15:59:27;6.10;;;2.30;;
65737;SDS011;52478;51.844;6.582;2023-08-20T16:01:53;5.43;;;2.00;;